Terminal Aerodrome Forecast
Issued by NWS

Home | Current Version | Previous Version | Text Only | Print | Product List | Glossary On
Versions: 1 2 3 4 5 6 7 8 9 10 11 12 13
000
FTUS46 KHNX 251141
TAFMER
TAF
KMER 251141Z 2512/2612 VRB05KT P6SM BKN250
     FM251700 15012G18KT P6SM SCT050 BKN100
      TEMPO 2520/2524 5SM -SHRA BKN050
     FM260000 31005KT P6SM SCT050=

USA.gov is the U.S. government's official web portal to all federal, state and local government web resources and services.